Time;durP1;ratioP1;P1;durP2;ratioP2;P2;SDS_P1;SDS_P2;PMS_P1;PMS_P2;Temp;Humidity;BMP_temperature;BMP_pressure;BME280_temperature;BME280_humidity;BME280_pressure;Samples;Min_cycle;Max_cycle;Signal;HPM_P1;HPM_P2
2023/01/07 00:01:56;;;;;;;6.77;3.57;;;;;;;9.27;50.65;100238.38;5093259;28;20242;-56
2023/01/07 00:04:24;;;;;;;4.37;3.70;;;;;;;9.43;50.19;100261.16;5093352;28;20193;-55
2023/01/07 00:06:51;;;;;;;3.97;3.17;;;;;;;9.46;50.25;100252.66;5093251;28;20190;-54
2023/01/07 00:09:19;;;;;;;3.90;3.37;;;;;;;9.38;49.81;100243.84;5092866;28;20549;-55
2023/01/07 00:11:46;;;;;;;4.13;3.43;;;;;;;9.50;49.71;100264.78;5092867;28;20286;-56
2023/01/07 00:14:14;;;;;;;5.00;3.70;;;;;;;9.44;49.78;100249.19;5092766;28;20237;-55
2023/01/07 00:16:41;;;;;;;7.50;3.83;;;;;;;9.43;49.64;100270.53;5106366;28;20193;-56
2023/01/07 00:19:10;;;;;;;5.53;4.30;;;;;;;9.43;49.81;100273.09;5113309;28;20197;-55
2023/01/07 00:21:37;;;;;;;4.10;3.63;;;;;;;9.27;50.11;100271.72;5113158;28;20557;-55
2023/01/07 00:24:06;;;;;;;4.03;3.63;;;;;;;9.14;50.64;100274.69;5113907;28;20193;-55
2023/01/07 00:26:36;;;;;;;4.13;3.40;;;;;;;9.04;50.88;100282.88;5113266;28;20186;-55
2023/01/07 00:29:03;;;;;;;6.87;3.70;;;;;;;8.90;51.31;100279.81;5113769;28;20199;-55
2023/01/07 00:31:33;;;;;;;5.77;4.33;;;;;;;8.78;51.80;100283.66;5112395;28;20240;-55
2023/01/07 00:34:07;;;;;;;4.90;4.07;;;;;;;8.77;52.23;100292.13;5113077;28;20186;-55
2023/01/07 00:36:37;;;;;;;5.97;4.80;;;;;;;8.54;52.72;100265.69;5100204;28;20200;-55
2023/01/07 00:39:06;;;;;;;6.10;5.03;;;;;;;8.59;52.89;100276.13;5112757;28;20649;-56
2023/01/07 00:41:35;;;;;;;6.47;4.67;;;;;;;8.59;53.36;100283.81;5112959;28;20190;-56
2023/01/07 00:44:02;;;;;;;6.13;5.33;;;;;;;8.57;53.29;100288.84;5112795;28;20623;-56
2023/01/07 00:46:29;;;;;;;8.07;5.23;;;;;;;8.53;53.66;100298.94;5112847;28;20196;-56
2023/01/07 00:48:56;;;;;;;5.57;4.97;;;;;;;8.41;53.62;100288.22;5112507;28;20197;-55
2023/01/07 00:51:23;;;;;;;6.53;5.10;;;;;;;8.36;53.83;100295.75;5112641;28;20641;-55
2023/01/07 00:53:50;;;;;;;6.63;5.47;;;;;;;8.40;54.08;100295.06;5112361;28;20430;-55
2023/01/07 00:56:17;;;;;;;6.57;5.70;;;;;;;8.34;54.06;100294.81;5112463;28;20242;-55
2023/01/07 00:58:46;;;;;;;7.07;5.03;;;;;;;8.36;53.72;100290.63;5112639;28;20210;-55
2023/01/07 01:01:13;;;;;;;6.77;5.10;;;;;;;8.34;54.04;100293.94;5112710;28;20213;-55
2023/01/07 01:03:40;;;;;;;5.83;4.77;;;;;;;8.28;53.81;100300.59;5112419;28;20581;-55
2023/01/07 01:06:09;;;;;;;5.20;4.57;;;;;;;8.30;53.77;100290.38;5112402;28;20197;-55
2023/01/07 01:08:35;;;;;;;5.97;4.80;;;;;;;8.30;53.59;100291.28;5112358;28;20660;-55
2023/01/07 01:11:04;;;;;;;6.57;4.43;;;;;;;8.30;53.61;100291.28;5112455;28;20190;-55
2023/01/07 01:13:30;;;;;;;6.50;4.10;;;;;;;8.26;53.54;100291.94;5092280;28;20190;-55
2023/01/07 01:15:59;;;;;;;4.23;3.83;;;;;;;8.07;53.13;100253.66;5095334;28;20214;-55
2023/01/07 01:18:26;;;;;;;5.90;4.40;;;;;;;8.19;53.22;100277.16;5112480;28;20201;-54
2023/01/07 01:20:53;;;;;;;6.50;4.33;;;;;;;8.30;53.45;100287.84;5102171;28;20194;-54
2023/01/07 01:23:21;;;;;;;4.97;3.93;;;;;;;8.34;53.06;100288.81;5091945;28;20244;-55
2023/01/07 01:25:47;;;;;;;8.00;4.27;;;;;;;8.32;53.42;100295.59;5091910;28;20197;-55
2023/01/07 01:28:14;;;;;;;7.27;4.40;;;;;;;8.25;53.65;100289.31;5092007;28;20195;-55
2023/01/07 01:30:41;;;;;;;5.07;4.43;;;;;;;8.19;53.67;100291.63;5091823;28;20611;-54
2023/01/07 01:33:09;;;;;;;4.27;3.73;;;;;;;8.16;53.73;100282.16;5091700;28;20187;-55
2023/01/07 01:35:40;;;;;;;4.60;4.20;;;;;;;8.12;53.68;100284.56;5091907;28;20234;-55
2023/01/07 01:38:06;;;;;;;5.63;4.70;;;;;;;8.19;54.01;100289.06;5090896;28;20440;-55
2023/01/07 01:40:33;;;;;;;6.80;4.67;;;;;;;8.23;53.42;100285.84;5092025;28;20263;-56
2023/01/07 01:43:00;;;;;;;4.77;4.30;;;;;;;8.23;53.47;100285.84;5095482;28;20201;-55
2023/01/07 01:45:27;;;;;;;7.73;4.73;;;;;;;8.20;53.73;100278.91;5102200;28;20199;-55
2023/01/07 01:47:57;;;;;;;9.07;5.93;;;;;;;8.00;54.17;100245.69;5110220;28;20256;-55
2023/01/07 01:50:29;;;;;;;6.57;5.50;;;;;;;8.07;54.58;100279.25;5115840;28;20185;-55
2023/01/07 01:53:01;;;;;;;5.80;5.10;;;;;;;8.05;55.15;100274.88;5095787;28;20195;-55
2023/01/07 01:55:34;;;;;;;7.33;6.10;;;;;;;7.93;55.15;100269.28;5114341;28;20221;-55
2023/01/07 01:58:05;;;;;;;10.80;6.70;;;;;;;7.89;55.58;100267.41;5116654;28;20222;-55
2023/01/07 02:00:33;;;;;;;8.50;6.30;;;;;;;7.72;55.89;100256.53;5115968;28;20204;-55
2023/01/07 02:03:02;;;;;;;12.48;6.90;;;;;;;7.75;56.02;100274.56;5115791;28;20928;-55
2023/01/07 02:05:33;;;;;;;9.07;5.87;;;;;;;7.76;55.80;100283.97;5116045;28;20198;-55
2023/01/07 02:08:00;;;;;;;8.20;6.23;;;;;;;7.67;56.12;100283.59;5116123;28;20201;-55
2023/01/07 02:10:30;;;;;;;8.83;6.20;;;;;;;7.68;56.38;100287.91;5115863;28;20610;-55
2023/01/07 02:13:19;;;;;;;7.73;6.17;;;;;;;7.63;56.28;100286.88;5115706;28;20194;-55
2023/01/07 02:15:57;;;;;;;7.23;5.93;;;;;;;7.59;56.46;100296.09;5116174;28;20222;-55
2023/01/07 02:18:36;;;;;;;7.17;5.97;;;;;;;7.47;56.61;100298.13;5115710;28;20196;-55
2023/01/07 02:21:23;;;;;;;7.57;6.17;;;;;;;7.23;56.83;100252.78;5115636;28;20660;-55
2023/01/07 02:24:41;;;;;;;8.57;5.70;;;;;;;7.36;56.87;100289.16;5115511;28;20185;-55
2023/01/07 02:27:16;;;;;;;6.90;5.80;;;;;;;7.31;57.19;100290.66;5115087;28;20194;-55
2023/01/07 02:30:12;;;;;;;7.00;5.60;;;;;;;7.36;56.83;100289.16;5115927;28;20227;-55
2023/01/07 02:33:06;;;;;;;8.17;5.27;;;;;;;7.37;57.18;100296.03;5111738;28;20192;-55
2023/01/07 02:35:47;;;;;;;6.90;5.90;;;;;;;7.16;56.65;100279.78;5104903;28;20225;-55
2023/01/07 02:38:24;;;;;;;8.00;6.07;;;;;;;7.23;57.12;100296.25;5115284;28;20193;-55
2023/01/07 02:40:58;;;;;;;7.43;6.07;;;;;;;7.22;57.49;100305.63;5115288;28;20189;-55
2023/01/07 02:43:35;;;;;;;7.33;5.77;;;;;;;7.16;57.78;100297.69;5115402;28;20189;-56
2023/01/07 02:46:09;;;;;;;6.50;5.60;;;;;;;7.15;57.41;100298.47;5115786;28;20197;-56
2023/01/07 02:48:39;;;;;;;5.77;5.17;;;;;;;7.19;57.53;100299.50;5115617;28;20207;-56
2023/01/07 02:51:05;;;;;;;7.87;6.00;;;;;;;7.23;57.34;100307.34;5115806;28;20267;-56
2023/01/07 02:53:33;;;;;;;7.47;5.60;;;;;;;7.22;56.91;100303.06;5114990;28;20655;-54
2023/01/07 02:56:14;;;;;;;7.77;5.37;;;;;;;7.19;57.42;100309.72;5114965;28;20221;-55
2023/01/07 02:59:00;;;;;;;9.33;6.40;;;;;;;7.11;57.11;100312.78;5113737;28;20194;-54
2023/01/07 03:02:03;;;;;;;8.97;7.00;;;;;;;6.97;58.06;100319.03;5114941;28;20568;-55
2023/01/07 03:04:57;;;;;;;10.93;6.90;;;;;;;6.88;58.68;100307.50;5114532;28;20533;-54
2023/01/07 03:07:35;;;;;;;7.17;6.47;;;;;;;6.87;58.45;100306.63;5115505;28;20216;-54
2023/01/07 03:10:10;;;;;;;9.40;6.63;;;;;;;6.84;58.51;100313.31;5114558;28;20186;-55
2023/01/07 03:12:42;;;;;;;7.53;6.00;;;;;;;6.74;58.54;100314.56;5113626;28;20251;-55
2023/01/07 03:15:14;;;;;;;10.17;7.27;;;;;;;6.67;59.62;100316.78;5114556;28;20231;-55
2023/01/07 03:17:44;;;;;;;8.90;6.90;;;;;;;6.25;60.63;100320.81;5114408;28;20190;-55
2023/01/07 03:20:13;;;;;;;8.87;6.57;;;;;;;6.28;61.44;100320.97;5113979;28;20207;-54
2023/01/07 03:22:42;;;;;;;8.50;6.90;;;;;;;6.35;61.42;100318.75;5114252;28;20190;-55
2023/01/07 03:25:11;;;;;;;8.67;6.73;;;;;;;6.27;61.32;100298.78;5114470;28;20257;-55
2023/01/07 03:27:41;;;;;;;9.60;6.90;;;;;;;6.49;61.03;100315.16;5114301;28;20185;-55
2023/01/07 03:30:12;;;;;;;11.37;6.77;;;;;;;6.49;60.68;100312.59;5115047;28;20197;-54
2023/01/07 03:32:44;;;;;;;8.33;6.57;;;;;;;6.51;59.95;100313.53;5115029;28;20185;-55
2023/01/07 03:35:13;;;;;;;9.43;6.10;;;;;;;6.54;60.24;100318.78;5114246;28;20187;-54
2023/01/07 03:37:42;;;;;;;9.27;7.30;;;;;;;6.58;59.97;100319.81;5114298;28;20196;-55
2023/01/07 03:40:11;;;;;;;7.57;6.33;;;;;;;6.61;59.37;100319.06;5114228;28;20652;-55
2023/01/07 03:42:39;;;;;;;8.47;7.03;;;;;;;6.67;59.24;100316.78;5114057;28;20189;-55
2023/01/07 03:45:09;;;;;;;7.73;6.60;;;;;;;6.62;59.17;100311.47;5114523;28;20190;-55
2023/01/07 03:47:38;;;;;;;9.37;6.60;;;;;;;6.65;59.35;100329.47;5114241;28;20576;-55
2023/01/07 03:50:06;;;;;;;11.60;7.40;;;;;;;6.55;59.76;100319.66;5113366;28;20572;-55
2023/01/07 03:52:34;;;;;;;11.67;7.60;;;;;;;6.52;59.89;100322.06;5114137;28;20256;-54
2023/01/07 03:55:00;;;;;;;8.30;6.47;;;;;;;6.50;59.96;100309.25;5113775;28;20266;-55
2023/01/07 03:57:28;;;;;;;10.57;7.63;;;;;;;6.46;60.41;100327.78;5113581;28;20221;-55
2023/01/07 03:59:54;;;;;;;11.97;8.37;;;;;;;6.40;60.98;100317.28;5113934;28;20287;-55
2023/01/07 04:02:21;;;;;;;11.33;8.83;;;;;;;6.34;61.90;100311.91;5113740;28;20200;-55
2023/01/07 04:04:48;;;;;;;12.23;9.47;;;;;;;6.22;62.56;100321.56;5113706;28;20189;-55
2023/01/07 04:07:15;;;;;;;15.00;11.17;;;;;;;6.19;63.45;100321.41;5113755;28;20200;-55
2023/01/07 04:09:45;;;;;;;16.03;12.57;;;;;;;6.18;63.29;100327.28;5113554;28;20219;-55
2023/01/07 04:12:12;;;;;;;18.37;12.70;;;;;;;6.14;63.67;100330.53;5113581;28;20188;-55
2023/01/07 04:14:39;;;;;;;12.97;11.57;;;;;;;5.99;64.00;100332.34;5114137;28;20235;-55
2023/01/07 04:17:06;;;;;;;15.10;11.40;;;;;;;6.02;64.72;100327.38;5113429;28;20225;-55
2023/01/07 04:19:33;;;;;;;14.77;11.33;;;;;;;6.04;64.69;100328.34;5113563;28;20191;-55
2023/01/07 04:22:00;;;;;;;14.87;10.43;;;;;;;6.00;64.20;100333.22;5113428;28;20217;-56
2023/01/07 04:24:26;;;;;;;20.60;11.87;;;;;;;6.05;64.62;100332.63;5113423;28;20202;-55
2023/01/07 04:26:55;;;;;;;16.60;11.30;;;;;;;6.01;64.85;100345.19;5113243;28;20207;-55
2023/01/07 04:29:21;;;;;;;18.73;12.37;;;;;;;6.02;64.75;100341.81;5113372;28;20197;-55
2023/01/07 04:31:49;;;;;;;18.37;12.03;;;;;;;5.90;64.73;100344.66;5113197;28;20182;-55
2023/01/07 04:34:16;;;;;;;19.13;13.17;;;;;;;5.80;65.70;100353.50;5113164;28;20189;-55
2023/01/07 04:36:42;;;;;;;15.50;12.23;;;;;;;5.90;65.81;100357.41;5112794;28;20227;-55
2023/01/07 04:39:09;;;;;;;18.63;12.57;;;;;;;5.89;65.52;100356.53;5113365;28;20193;-55
2023/01/07 04:41:36;;;;;;;18.47;12.37;;;;;;;5.79;65.33;100333.03;5113327;28;20193;-55
2023/01/07 04:44:05;;;;;;;24.40;12.87;;;;;;;5.95;65.22;100353.41;5112950;28;20674;-55
2023/01/07 04:46:32;;;;;;;21.30;13.23;;;;;;;5.92;65.12;100356.69;5112942;28;20195;-55
2023/01/07 04:48:58;;;;;;;19.30;12.67;;;;;;;5.87;65.20;100357.28;5112957;28;20196;-55
2023/01/07 04:51:25;;;;;;;20.20;13.57;;;;;;;5.89;65.43;100355.66;5112902;28;20186;-55
2023/01/07 04:53:52;;;;;;;18.33;12.73;;;;;;;5.87;65.77;100358.16;5112630;28;20193;-55
2023/01/07 04:56:19;;;;;;;17.60;12.00;;;;;;;5.89;66.22;100360.75;5112578;28;20683;-55
2023/01/07 04:58:45;;;;;;;17.50;10.17;;;;;;;5.88;65.70;100352.22;5112868;28;20188;-55
2023/01/07 05:01:14;;;;;;;22.40;14.93;;;;;;;5.90;66.06;100365.06;5112148;28;20433;-55
2023/01/07 05:03:40;;;;;;;18.30;13.20;;;;;;;5.93;65.70;100363.53;5112752;28;20187;-55
2023/01/07 05:06:08;;;;;;;17.50;12.50;;;;;;;5.96;65.08;100367.91;5112444;28;20190;-56
2023/01/07 05:08:35;;;;;;;17.73;12.53;;;;;;;5.66;65.31;100340.91;5111885;28;20219;-55
2023/01/07 05:11:03;;;;;;;24.47;13.27;;;;;;;5.65;66.26;100370.63;5112474;28;20189;-55
2023/01/07 05:13:31;;;;;;;23.40;13.37;;;;;;;5.64;66.58;100373.06;5111622;28;20285;-55
2023/01/07 05:15:57;;;;;;;17.47;12.87;;;;;;;5.54;66.75;100369.22;5104219;28;20316;-55
2023/01/07 05:18:25;;;;;;;20.10;14.60;;;;;;;5.54;67.63;100370.88;5097056;28;20197;-55
2023/01/07 05:20:52;;;;;;;19.13;14.17;;;;;;;5.55;67.49;100376.03;5092059;28;20259;-55
2023/01/07 05:23:19;;;;;;;21.97;14.40;;;;;;;5.49;67.42;100377.41;5091480;28;20678;-56
2023/01/07 05:25:46;;;;;;;22.47;15.40;;;;;;;5.43;68.05;100367.78;5092554;28;20189;-56
2023/01/07 05:28:13;;;;;;;25.47;14.87;;;;;;;5.39;68.75;100381.16;5092508;28;20197;-55
2023/01/07 05:30:39;;;;;;;21.73;15.23;;;;;;;5.32;68.48;100380.00;5092334;28;20196;-55
2023/01/07 05:33:07;;;;;;;24.17;14.83;;;;;;;5.38;69.24;100380.28;5092105;28;20199;-55
2023/01/07 05:35:35;;;;;;;23.23;14.47;;;;;;;5.41;68.54;100379.59;5091735;28;20188;-56
2023/01/07 05:38:02;;;;;;;15.60;11.33;;;;;;;5.41;68.62;100378.72;5105082;28;20200;-56
2023/01/07 05:40:29;;;;;;;15.30;11.07;;;;;;;5.49;67.93;100382.50;5112262;28;20193;-56
2023/01/07 05:42:56;;;;;;;15.10;11.33;;;;;;;5.54;66.67;100381.94;5109199;28;20244;-56
2023/01/07 05:45:23;;;;;;;12.47;10.07;;;;;;;5.58;66.59;100383.84;5102041;28;20325;-55
2023/01/07 05:47:49;;;;;;;13.03;9.67;;;;;;;5.07;66.14;100307.34;5091610;28;20194;-55
2023/01/07 05:50:16;;;;;;;17.87;10.23;;;;;;;5.60;65.76;100384.81;5092422;28;20188;-55
2023/01/07 05:52:44;;;;;;;11.97;8.83;;;;;;;5.65;65.79;100377.38;5092200;28;20186;-55
2023/01/07 05:55:11;;;;;;;19.07;13.47;;;;;;;5.65;66.86;100385.91;5091738;28;20211;-56
2023/01/07 05:57:38;;;;;;;32.10;19.80;;;;;;;5.62;67.62;100384.88;5103614;28;20235;-55
2023/01/07 06:00:06;;;;;;;31.13;20.30;;;;;;;5.48;68.90;100388.41;5112201;28;20187;-55
2023/01/07 06:02:33;;;;;;;25.13;18.17;;;;;;;5.28;70.14;100387.38;5112132;28;20188;-55
2023/01/07 06:05:00;;;;;;;24.67;18.97;;;;;;;5.21;70.31;100382.78;5112085;28;20195;-55
2023/01/07 06:07:26;;;;;;;26.70;19.33;;;;;;;5.22;69.76;100387.06;5112091;28;20243;-55
2023/01/07 06:09:55;;;;;;;28.97;20.47;;;;;;;5.22;70.61;100392.16;5112235;28;20603;-55
2023/01/07 06:12:21;;;;;;;36.40;20.17;;;;;;;5.25;70.80;100384.69;5112113;28;20188;-54
2023/01/07 06:14:48;;;;;;;37.97;25.03;;;;;;;5.23;69.74;100386.28;5112164;28;20194;-55
2023/01/07 06:17:15;;;;;;;41.07;29.13;;;;;;;5.18;70.32;100400.47;5111682;28;20214;-55
2023/01/07 06:19:42;;;;;;;31.83;23.10;;;;;;;5.19;70.50;100387.78;5112057;28;20199;-56
2023/01/07 06:22:08;;;;;;;38.80;27.57;;;;;;;5.29;70.81;100394.25;5111608;28;20663;-55
2023/01/07 06:24:35;;;;;;;39.63;26.17;;;;;;;5.35;70.46;100395.44;5111649;28;20192;-55
2023/01/07 06:27:04;;;;;;;34.97;25.37;;;;;;;5.37;70.04;100398.06;5111845;28;20616;-55
2023/01/07 06:29:30;;;;;;;26.60;19.97;;;;;;;5.45;69.49;100395.88;5111908;28;20246;-56
2023/01/07 06:31:58;;;;;;;32.83;19.67;;;;;;;5.52;69.27;100398.81;5111431;28;20208;-55
2023/01/07 06:34:25;;;;;;;31.27;23.83;;;;;;;5.56;68.74;100410.03;5112588;28;20618;-55
2023/01/07 06:36:51;;;;;;;41.28;30.30;;;;;;;5.63;69.46;100409.59;5113131;28;20941;-56
2023/01/07 06:39:18;;;;;;;36.13;25.03;;;;;;;5.73;68.12;100406.69;5114295;28;20196;-56
2023/01/07 06:41:45;;;;;;;37.60;27.83;;;;;;;5.71;68.51;100410.84;5105075;28;20218;-55
2023/01/07 06:44:13;;;;;;;35.43;25.30;;;;;;;6.01;68.87;100420.03;5103614;28;20593;-56
2023/01/07 06:46:40;;;;;;;34.67;26.95;;;;;;;6.27;66.89;100406.84;5093725;28;20428;-56
2023/01/07 06:49:07;;;;;;;33.87;25.10;;;;;;;6.21;65.75;100410.75;5094559;28;20222;-55
2023/01/07 06:51:33;;;;;;;39.77;25.63;;;;;;;6.07;66.29;100415.19;5094949;28;20193;-56
2023/01/07 06:54:00;;;;;;;36.87;27.43;;;;;;;6.27;67.28;100411.94;5094937;28;20644;-55
2023/01/07 06:56:27;;;;;;;59.60;42.30;;;;;;;6.26;66.44;100414.44;5094643;28;20571;-56
2023/01/07 06:58:54;;;;;;;66.90;41.77;;;;;;;6.12;67.35;100418.88;5094283;28;20184;-58
2023/01/07 07:01:22;;;;;;;59.70;40.67;;;;;;;5.80;69.35;100418.91;5113770;28;20194;-56
2023/01/07 07:03:49;;;;;;;58.77;38.93;;;;;;;5.60;69.73;100417.94;5114729;28;20192;-55
2023/01/07 07:06:16;;;;;;;53.13;37.00;;;;;;;5.52;70.34;100408.16;5114861;28;20195;-55
2023/01/07 07:08:43;;;;;;;62.95;43.25;;;;;;;5.51;71.34;100402.19;5112989;28;20450;-56
2023/01/07 07:11:09;;;;;;;52.00;33.40;;;;;;;5.63;71.27;100409.59;5114583;28;20195;-56
2023/01/07 07:13:36;;;;;;;51.50;31.93;;;;;;;5.78;70.30;100406.09;5114608;28;20211;-56
2023/01/07 07:16:03;;;;;;;51.23;32.33;;;;;;;5.84;69.62;100416.63;5108051;27;20247;-55
2023/01/07 07:18:31;;;;;;;58.70;43.67;;;;;;;5.77;70.14;100416.22;5108936;28;20473;-55
2023/01/07 07:20:58;;;;;;;59.57;41.13;;;;;;;5.71;70.88;100421.88;5107924;28;20205;-56
2023/01/07 07:23:25;;;;;;;59.90;42.03;;;;;;;5.71;70.04;100419.34;5111667;28;20280;-56
2023/01/07 07:25:52;;;;;;;61.70;41.73;;;;;;;5.59;71.06;100420.41;5114453;28;20203;-55
2023/01/07 07:28:19;;;;;;;63.33;45.00;;;;;;;5.49;71.16;100419.06;5114271;28;20207;-55
2023/01/07 07:30:45;;;;;;;56.77;41.43;;;;;;;5.73;70.89;100422.84;5112442;28;20197;-56
2023/01/07 07:33:13;;;;;;;82.77;45.73;;;;;;;5.91;70.27;100434.00;5107627;28;20192;-57
2023/01/07 07:35:42;;;;;;;70.23;45.03;;;;;;;5.99;69.46;100413.97;5113417;28;20189;-56
2023/01/07 07:38:09;;;;;;;78.57;47.10;;;;;;;6.19;69.37;100420.03;5113615;28;20284;-56
2023/01/07 07:40:35;;;;;;;67.57;44.67;;;;;;;6.31;68.44;100426.63;5110419;28;20193;-55
2023/01/07 07:43:03;;;;;;;61.33;40.90;;;;;;;6.41;68.33;100426.25;5110439;28;20193;-55
2023/01/07 07:45:29;;;;;;;69.23;41.97;;;;;;;6.51;66.89;100433.53;5112918;28;20189;-56
2023/01/07 07:47:56;;;;;;;76.57;45.33;;;;;;;6.56;67.40;100435.44;5113440;28;20352;-56
2023/01/07 07:50:23;;;;;;;65.73;38.03;;;;;;;6.53;66.98;100423.41;5113675;28;20197;-56
2023/01/07 07:52:51;;;;;;;50.80;31.17;;;;;;;6.48;66.24;100425.72;5113718;28;20203;-56
2023/01/07 07:55:18;;;;;;;37.07;25.77;;;;;;;6.41;66.10;100405.81;5113736;28;20184;-55
2023/01/07 07:57:45;;;;;;;39.77;25.07;;;;;;;6.52;66.66;100429.28;5113604;28;20226;-55
2023/01/07 08:00:13;;;;;;;44.60;27.73;;;;;;;6.59;66.96;100431.34;5113757;28;20197;-55
2023/01/07 08:02:40;;;;;;;33.90;22.77;;;;;;;6.64;66.88;100429.00;5109223;28;20215;-56
2023/01/07 08:05:10;;;;;;;38.70;22.73;;;;;;;6.76;66.53;100427.88;5106769;28;20191;-56
2023/01/07 08:07:37;;;;;;;32.07;20.37;;;;;;;6.88;65.92;100425.00;5093957;28;20291;-56
2023/01/07 08:10:06;;;;;;;39.73;19.87;;;;;;;6.99;65.18;100428.94;5109762;28;20205;-56
2023/01/07 08:12:36;;;;;;;30.07;20.17;;;;;;;7.03;65.16;100421.47;5112614;28;20250;-56
2023/01/07 08:15:03;;;;;;;31.23;19.13;;;;;;;7.11;64.78;100399.69;5113931;28;20188;-56
2023/01/07 08:17:29;;;;;;;18.97;13.50;;;;;;;7.42;63.35;100422.34;5113328;28;20270;-55
2023/01/07 08:19:56;;;;;;;19.13;11.50;;;;;;;7.53;62.40;100422.81;5112451;28;20194;-55
2023/01/07 08:22:23;;;;;;;13.52;10.27;;;;;;;7.64;61.27;100424.13;5112921;28;20989;-56
2023/01/07 08:24:50;;;;;;;13.17;10.53;;;;;;;7.74;60.33;100413.50;5112445;28;20692;-56
2023/01/07 08:27:18;;;;;;;17.77;12.40;;;;;;;7.84;60.04;100418.19;5112909;28;20194;-55
2023/01/07 08:29:45;;;;;;;24.53;16.10;;;;;;;7.97;59.70;100411.88;5113020;28;20189;-56
2023/01/07 08:32:11;;;;;;;23.23;15.50;;;;;;;8.06;59.40;100405.47;5112864;28;20190;-55
2023/01/07 08:34:38;;;;;;;17.53;13.17;;;;;;;8.10;58.98;100402.19;5113191;28;20194;-55
2023/01/07 08:37:05;;;;;;;18.83;12.57;;;;;;;8.22;58.70;100401.81;5112843;28;20221;-56
2023/01/07 08:39:32;;;;;;;14.23;10.60;;;;;;;8.28;58.35;100410.66;5112878;28;20197;-56
2023/01/07 08:41:59;;;;;;;16.53;11.13;;;;;;;8.36;58.46;100407.53;5110631;28;20683;-55
2023/01/07 08:44:27;;;;;;;10.03;7.60;;;;;;;8.31;57.57;100409.91;5105861;28;20193;-57
2023/01/07 08:46:54;;;;;;;14.17;7.23;;;;;;;8.38;57.36;100404.22;5105057;28;20192;-56
2023/01/07 08:49:21;;;;;;;8.60;7.50;;;;;;;8.41;57.56;100404.34;5109466;28;20259;-55
2023/01/07 08:51:47;;;;;;;10.77;8.27;;;;;;;8.48;58.11;100395.22;5112466;28;20223;-56
2023/01/07 08:54:14;;;;;;;11.27;7.83;;;;;;;8.55;57.95;100402.31;5112376;28;20189;-57
2023/01/07 08:56:41;;;;;;;13.70;8.35;;;;;;;8.66;57.73;100396.78;5110992;28;20499;-56
2023/01/07 08:59:08;;;;;;;12.30;8.50;;;;;;;8.72;57.41;100384.22;5112454;28;20483;-56
2023/01/07 09:01:36;;;;;;;9.53;8.53;;;;;;;8.67;57.14;100352.44;5102065;28;20573;-56
2023/01/07 09:04:03;;;;;;;13.27;8.53;;;;;;;8.90;56.76;100374.63;5092146;28;20197;-56
2023/01/07 09:06:30;;;;;;;10.93;8.33;;;;;;;8.82;56.69;100367.47;5094684;28;21101;-56
2023/01/07 09:08:57;;;;;;;11.20;7.77;;;;;;;8.97;57.04;100370.63;5112077;28;20196;-57
2023/01/07 09:11:24;;;;;;;13.10;7.90;;;;;;;8.39;57.09;100259.13;5112315;28;20255;-56
2023/01/07 09:13:50;;;;;;;11.93;7.40;;;;;;;9.11;56.60;100368.56;5112131;28;20538;-57
2023/01/07 09:16:17;;;;;;;11.97;7.00;;;;;;;9.09;56.66;100363.34;5112316;28;20250;-56
2023/01/07 09:18:46;;;;;;;8.83;6.50;;;;;;;9.20;56.63;100351.78;5111515;28;20217;-56
2023/01/07 09:21:12;;;;;;;14.20;7.93;;;;;;;9.28;56.23;100350.41;5111927;28;20194;-57
2023/01/07 09:23:40;;;;;;;11.10;7.15;;;;;;;9.39;55.88;100340.50;5111690;28;20422;-56
2023/01/07 09:26:07;;;;;;;10.07;7.00;;;;;;;9.52;55.63;100340.09;5110515;28;20190;-56
2023/01/07 09:28:34;;;;;;;9.77;7.17;;;;;;;9.65;55.02;100342.25;5112585;28;20197;-56
2023/01/07 09:31:01;;;;;;;11.70;7.37;;;;;;;9.77;54.80;100342.66;5112449;28;20582;-56
2023/01/07 09:33:29;;;;;;;12.00;8.23;;;;;;;9.85;54.43;100317.25;5110839;28;20436;-56
2023/01/07 09:35:57;;;;;;;10.03;7.10;;;;;;;10.07;54.12;100323.09;5111714;28;20182;-56
2023/01/07 09:38:24;;;;;;;12.67;7.60;;;;;;;10.25;53.93;100316.81;5110255;28;20214;-57
2023/01/07 09:40:51;;;;;;;10.90;6.80;;;;;;;10.31;54.12;100317.00;5111937;28;20301;-56
2023/01/07 09:43:27;;;;;;;9.90;7.80;;;;;;;10.43;53.87;100312.25;5111810;28;20186;-56
2023/01/07 09:45:58;;;;;;;12.13;8.00;;;;;;;10.36;54.24;100295.75;5111180;28;20197;-57
2023/01/07 09:48:31;;;;;;;8.73;7.30;;;;;;;10.41;54.55;100301.06;5111964;28;20656;-56
2023/01/07 09:51:03;;;;;;;12.50;8.13;;;;;;;10.40;54.96;100299.31;5112295;28;20186;-56
2023/01/07 09:53:34;;;;;;;12.80;9.23;;;;;;;10.44;54.71;100296.84;5110960;28;20190;-56
2023/01/07 09:56:03;;;;;;;10.37;7.97;;;;;;;10.50;54.37;100284.19;5108010;28;20190;-57
2023/01/07 09:58:30;;;;;;;12.40;8.37;;;;;;;10.48;54.79;100278.16;5110314;28;20634;-57
2023/01/07 10:01:04;;;;;;;13.90;9.03;;;;;;;10.62;54.45;100276.84;5110611;28;20190;-56
2023/01/07 10:03:51;;;;;;;10.27;7.47;;;;;;;10.62;54.60;100253.72;5111109;28;20190;-56
2023/01/07 10:06:26;;;;;;;9.40;7.20;;;;;;;10.85;54.52;100254.34;5111060;28;20712;-57
2023/01/07 10:09:06;;;;;;;9.43;6.80;;;;;;;10.99;53.76;100255.59;5113766;28;20194;-57
2023/01/07 10:11:48;;;;;;;12.17;7.03;;;;;;;11.10;53.54;100254.16;5115529;28;20704;-56
2023/01/07 10:14:37;;;;;;;8.27;5.93;;;;;;;11.22;52.53;100246.78;5115689;28;20186;-56
2023/01/07 10:17:11;;;;;;;8.67;6.37;;;;;;;11.27;52.52;100241.75;5114791;28;20290;-57
2023/01/07 10:19:47;;;;;;;8.30;6.33;;;;;;;11.37;52.55;100233.41;5114948;28;20186;-56
2023/01/07 10:22:21;;;;;;;7.03;5.70;;;;;;;11.43;52.31;100230.13;5115542;28;20541;-56
2023/01/07 10:24:53;;;;;;;8.90;6.10;;;;;;;11.47;52.48;100239.66;5115226;28;20196;-57
2023/01/07 10:27:29;;;;;;;8.77;6.30;;;;;;;11.58;52.01;100225.34;5115057;28;20657;-57
2023/01/07 10:30:01;;;;;;;10.43;7.60;;;;;;;11.64;52.52;100222.94;5115353;28;20186;-57
2023/01/07 10:32:31;;;;;;;8.07;7.17;;;;;;;11.59;52.50;100215.06;5115133;28;20212;-56
2023/01/07 10:35:00;;;;;;;8.57;6.77;;;;;;;11.61;52.51;100217.72;5115149;28;20645;-56
2023/01/07 10:37:32;;;;;;;9.10;7.65;;;;;;;11.71;52.40;100229.97;5114386;28;20485;-56
2023/01/07 10:40:10;;;;;;;8.67;4.70;;;;;;;11.88;50.63;100220.94;5115081;28;20187;-56
2023/01/07 10:42:43;;;;;;;5.77;4.40;;;;;;;11.96;50.47;100210.81;5114998;28;20182;-57
2023/01/07 10:45:25;;;;;;;9.23;6.97;;;;;;;12.06;51.22;100205.88;5114992;28;20243;-56
2023/01/07 10:48:14;;;;;;;7.37;6.03;;;;;;;12.06;51.72;100200.72;5115141;28;20194;-57
2023/01/07 10:50:57;;;;;;;9.47;6.23;;;;;;;12.09;51.83;100187.91;5114874;28;20194;-57
2023/01/07 10:53:33;;;;;;;7.43;5.57;;;;;;;12.18;51.77;100182.09;5114440;28;20186;-57
2023/01/07 10:56:13;;;;;;;8.80;5.03;;;;;;;12.19;51.49;100179.56;5114288;28;20188;-57
2023/01/07 10:58:42;;;;;;;5.63;4.90;;;;;;;12.25;51.58;100174.53;5096579;28;20264;-57
2023/01/07 11:01:21;;;;;;;5.67;4.87;;;;;;;12.32;51.16;100176.41;5114446;28;20190;-57
2023/01/07 11:03:50;;;;;;;8.50;4.73;;;;;;;12.27;51.17;100162.56;5114777;28;20622;-56
2023/01/07 11:06:19;;;;;;;4.97;4.47;;;;;;;12.31;51.00;100166.91;5114752;28;20186;-56
2023/01/07 11:08:48;;;;;;;6.87;5.27;;;;;;;12.29;51.18;100160.88;5114955;28;20191;-56
2023/01/07 11:11:20;;;;;;;8.10;5.37;;;;;;;12.21;51.12;100130.63;5114668;28;20182;-57
2023/01/07 11:13:56;;;;;;;7.57;5.90;;;;;;;12.35;51.59;100144.66;5114508;28;20645;-56
2023/01/07 11:16:27;;;;;;;7.80;4.80;;;;;;;12.42;50.82;100143.94;5113946;28;20282;-56
2023/01/07 11:18:59;;;;;;;10.37;6.73;;;;;;;12.46;51.19;100147.44;5114119;28;20271;-57
2023/01/07 11:21:35;;;;;;;8.37;6.23;;;;;;;12.46;51.08;100137.13;5113662;28;20194;-57
2023/01/07 11:24:30;;;;;;;12.00;6.83;;;;;;;12.58;50.92;100139.94;5114128;28;20190;-56
2023/01/07 11:27:04;;;;;;;12.13;6.57;;;;;;;12.61;50.77;100132.28;5114230;28;20613;-56
2023/01/07 11:29:37;;;;;;;7.67;5.67;;;;;;;12.64;50.10;100135.75;5114277;28;20193;-56
2023/01/07 11:32:06;;;;;;;10.80;5.37;;;;;;;12.62;50.05;100121.97;5113968;28;20187;-56
2023/01/07 11:34:35;;;;;;;8.17;5.63;;;;;;;12.62;49.51;100109.09;5114239;28;20190;-57
2023/01/07 11:37:04;;;;;;;6.73;5.50;;;;;;;12.73;49.27;100117.00;5114033;28;20252;-57